Angora, NE (69331)

7:13 PM MDT on September 18, 2014 (GMT -0600)
Wayne Rd. | Change Station
CLOSE
Current Station
Personal Weather Station
Location: Alliance, NE
Elevation: 4091 ft
Nearby Weather Stations

Elev 4091 ft 42.02 °N, 103.05 °W | Updated 21 seconds ago

Clear
Clear
73.9 °F
Feels Like 76 °F
N
10.0
Wind Variable Wind from South
Gusts 14.0 mph

Today
High -- | Low -- °F
--% Chance of Precip.
Yesterday
High -- | Low -- °F
Precip. -- in
6:35 AM 6:56 PM
Waning Crescent, 23% visible
Pressure 29.74 in
Visibility 10.0 miles
Clouds Clear
Heat Index 76 °F
Dew Point 62 °F
Humidity 66%
Rainfall 0.00 in
Snow Depth Not available.
UV 0 out of 12
Pollen 6.40 out of 12
Air Quality Not available.
Flu Activity Not available.
METAR KAIA 190053Z AUTO 16015KT 10SM CLR 23/16 A2985 RMK AO2 SLP069 T02330161

More Conditions Fewer Conditions

Pressure 29.74 in
Visibility 10.0 miles
Clouds Clear
Heat Index 76 °F
Dew Point 62 °F
Humidity 66%
Rainfall 0.00 in
Snow Depth Not available.
UV 0 out of 12
Pollen 6.40 out of 12
Air Quality Not available.
Flu Activity Not available.
METAR KAIA 190053Z AUTO 16015KT 10SM CLR 23/16 A2985 RMK AO2 SLP069 T02330161

More Conditions Fewer Conditions

10-Day Weather Forecast

Almanac

Astronomy

Sep. 18, 2014 Rise Set
Actual Time 6:35 AM MDT 6:56 PM MDT
Civil Twilight 6:07 AM MDT 7:24 PM MDT
Nautical Twilight 5:34 AM MDT 7:57 PM MDT
Astronomical Twilight 5:01 AM MDT 8:30 PM MDT
Moon 1:25 AM MDT (9/18) 3:52 PM MDT (9/18)
Length of Visible Light 13h 16m
Length of Day
12h 20m
Tomorrow will be 2m 47s shorter.
Waning Crescent, 23% of the Moon is Illuminated
Today
Waning Crescent
Sep 24
New
Oct 1
First Quarter
Oct 8
Full
Oct 15
Last Quarter

Today's Extremes

State Highs State Lows

Community

WunderPhotos

Upload Photos

1,754,510 photos uploaded!

Nearby

Snow Depth

Station Depth Elevation
No new snow has been reported.

Earthquake Activity

City Distance Mag. Time & Date
No recent earthquake activity has been reported nearby.
Minimum magnitude displayed is 2.5.

Coastal Water Temperatures

Place Temperature
No Stations Reporting

Nearby Weather Stations